sensor_id;sensor_type;location;lat;lon;timestamp;pressure;altitude;pressure_sealevel;temperature;humidity
48964;BME280;34776;48.180;16.420;2023-01-27T00:00:28;100000.03;;;2.23;79.60
48964;BME280;34776;48.180;16.420;2023-01-27T00:02:53;100001.75;;;2.24;79.80
48964;BME280;34776;48.180;16.420;2023-01-27T00:05:19;99994.78;;;2.23;79.80
48964;BME280;34776;48.180;16.420;2023-01-27T00:07:44;99998.25;;;2.26;79.71
48964;BME280;34776;48.180;16.420;2023-01-27T00:10:12;99994.72;;;2.27;79.67
48964;BME280;34776;48.180;16.420;2023-01-27T00:12:39;99995.56;;;2.29;79.74
48964;BME280;34776;48.180;16.420;2023-01-27T00:15:22;99990.31;;;2.30;79.67
48964;BME280;34776;48.180;16.420;2023-01-27T00:17:48;99992.09;;;2.28;79.17
48964;BME280;34776;48.180;16.420;2023-01-27T00:20:13;99990.44;;;2.21;78.49
48964;BME280;34776;48.180;16.420;2023-01-27T00:22:58;99998.31;;;2.21;78.63
48964;BME280;34776;48.180;16.420;2023-01-27T00:25:42;99994.88;;;2.17;78.18
48964;BME280;34776;48.180;16.420;2023-01-27T00:28:08;99999.25;;;2.15;77.72
48964;BME280;34776;48.180;16.420;2023-01-27T00:30:33;100000.09;;;2.17;77.89
48964;BME280;34776;48.180;16.420;2023-01-27T00:32:58;100003.50;;;2.22;77.80
48964;BME280;34776;48.180;16.420;2023-01-27T00:35:42;100006.13;;;2.22;77.75
48964;BME280;34776;48.180;16.420;2023-01-27T00:38:07;99995.63;;;2.24;77.69
48964;BME280;34776;48.180;16.420;2023-01-27T00:40:33;100001.81;;;2.20;77.18
48964;BME280;34776;48.180;16.420;2023-01-27T00:42:58;99996.63;;;2.15;76.88
48964;BME280;34776;48.180;16.420;2023-01-27T00:45:25;99998.38;;;2.16;77.03
48964;BME280;34776;48.180;16.420;2023-01-27T00:48:08;99998.28;;;2.22;76.77
48964;BME280;34776;48.180;16.420;2023-01-27T00:50:34;100010.50;;;2.23;76.34
48964;BME280;34776;48.180;16.420;2023-01-27T00:52:59;100007.03;;;2.21;76.58
48964;BME280;34776;48.180;16.420;2023-01-27T00:55:26;100008.75;;;2.24;76.62
48964;BME280;34776;48.180;16.420;2023-01-27T00:57:51;100010.53;;;2.20;75.98
48964;BME280;34776;48.180;16.420;2023-01-27T01:00:17;100011.44;;;2.19;76.02
48964;BME280;34776;48.180;16.420;2023-01-27T01:02:42;100013.97;;;2.26;76.59
48964;BME280;34776;48.180;16.420;2023-01-27T01:05:08;100013.06;;;2.28;76.37
48964;BME280;34776;48.180;16.420;2023-01-27T01:07:33;100019.13;;;2.32;76.24
48964;BME280;34776;48.180;16.420;2023-01-27T01:09:59;100015.66;;;2.30;75.90
48964;BME280;34776;48.180;16.420;2023-01-27T01:12:24;100008.72;;;2.26;75.46
48964;BME280;34776;48.180;16.420;2023-01-27T01:14:49;100008.75;;;2.22;75.72
48964;BME280;34776;48.180;16.420;2023-01-27T01:17:15;100009.59;;;2.24;75.47
48964;BME280;34776;48.180;16.420;2023-01-27T01:19:40;100011.38;;;2.22;75.42
48964;BME280;34776;48.180;16.420;2023-01-27T01:22:05;100006.19;;;2.21;75.54
48964;BME280;34776;48.180;16.420;2023-01-27T01:24:31;100005.28;;;2.20;75.58
48964;BME280;34776;48.180;16.420;2023-01-27T01:26:56;99998.25;;;2.26;75.89
48964;BME280;34776;48.180;16.420;2023-01-27T01:29:21;100004.34;;;2.28;75.71
48964;BME280;34776;48.180;16.420;2023-01-27T01:31:50;99999.03;;;2.31;75.62
48964;BME280;34776;48.180;16.420;2023-01-27T01:34:15;100001.66;;;2.31;75.74
48964;BME280;34776;48.180;16.420;2023-01-27T01:36:41;100003.41;;;2.32;75.67
48964;BME280;34776;48.180;16.420;2023-01-27T01:39:06;100006.13;;;2.26;75.22
48964;BME280;34776;48.180;16.420;2023-01-27T01:41:31;100000.03;;;2.23;75.14
48964;BME280;34776;48.180;16.420;2023-01-27T01:43:56;99996.63;;;2.15;74.79
48964;BME280;34776;48.180;16.420;2023-01-27T01:46:22;99993.16;;;2.16;74.81
48964;BME280;34776;48.180;16.420;2023-01-27T01:48:51;99995.72;;;2.18;75.03
48964;BME280;34776;48.180;16.420;2023-01-27T01:51:34;100001.00;;;2.16;74.68
48964;BME280;34776;48.180;16.420;2023-01-27T01:54:11;99987.84;;;2.19;74.82
48964;BME280;34776;48.180;16.420;2023-01-27T01:59:10;99987.00;;;2.19;74.87
48964;BME280;34776;48.180;16.420;2023-01-27T02:01:38;99980.88;;;2.18;74.64
48964;BME280;34776;48.180;16.420;2023-01-27T02:04:08;99979.13;;;2.17;74.59
48964;BME280;34776;48.180;16.420;2023-01-27T02:06:41;99980.06;;;2.15;74.51
48964;BME280;34776;48.180;16.420;2023-01-27T02:09:08;99991.41;;;2.15;74.79
48964;BME280;34776;48.180;16.420;2023-01-27T02:11:33;99989.69;;;2.14;74.47
48964;BME280;34776;48.180;16.420;2023-01-27T02:14:00;99976.59;;;2.11;74.53
48964;BME280;34776;48.180;16.420;2023-01-27T02:16:26;99979.22;;;2.10;74.33
48964;BME280;34776;48.180;16.420;2023-01-27T02:18:51;99982.78;;;2.07;74.24
48964;BME280;34776;48.180;16.420;2023-01-27T02:21:17;99982.81;;;2.04;74.29
48964;BME280;34776;48.180;16.420;2023-01-27T02:23:45;99979.38;;;1.99;74.51
48964;BME280;34776;48.180;16.420;2023-01-27T02:26:27;99975.91;;;2.00;74.54
48964;BME280;34776;48.180;16.420;2023-01-27T02:28:58;99963.56;;;2.05;74.76
48964;BME280;34776;48.180;16.420;2023-01-27T02:31:24;99962.66;;;2.08;74.85
48964;BME280;34776;48.180;16.420;2023-01-27T02:33:51;99968.00;;;2.01;74.60
48964;BME280;34776;48.180;16.420;2023-01-27T02:36:19;99958.47;;;1.96;74.53
48964;BME280;34776;48.180;16.420;2023-01-27T02:38:47;99951.41;;;2.01;74.95
48964;BME280;34776;48.180;16.420;2023-01-27T02:43:53;99953.16;;;2.02;74.39
48964;BME280;34776;48.180;16.420;2023-01-27T02:46:19;99944.47;;;1.97;74.24
48964;BME280;34776;48.180;16.420;2023-01-27T02:48:44;99946.28;;;1.93;74.42
48964;BME280;34776;48.180;16.420;2023-01-27T02:51:10;99948.09;;;1.90;74.39
48964;BME280;34776;48.180;16.420;2023-01-27T02:53:35;99943.69;;;1.92;74.51
48964;BME280;34776;48.180;16.420;2023-01-27T02:56:01;99953.31;;;1.90;74.17
48964;BME280;34776;48.180;16.420;2023-01-27T02:58:26;99948.91;;;1.93;74.48
48964;BME280;34776;48.180;16.420;2023-01-27T03:00:52;99948.09;;;1.90;74.46
48964;BME280;34776;48.180;16.420;2023-01-27T03:03:17;99942.84;;;1.90;74.16
48964;BME280;34776;48.180;16.420;2023-01-27T03:05:44;99943.84;;;1.81;74.13
48964;BME280;34776;48.180;16.420;2023-01-27T03:08:09;99944.69;;;1.81;74.08
48964;BME280;34776;48.180;16.420;2023-01-27T03:10:34;99944.63;;;1.86;74.41
48964;BME280;34776;48.180;16.420;2023-01-27T03:13:00;99945.44;;;1.91;74.25
48964;BME280;34776;48.180;16.420;2023-01-27T03:15:25;99948.94;;;1.90;74.21
48964;BME280;34776;48.180;16.420;2023-01-27T03:18:10;99941.94;;;1.91;74.32
48964;BME280;34776;48.180;16.420;2023-01-27T03:20:42;99938.44;;;1.92;73.99
48964;BME280;34776;48.180;16.420;2023-01-27T03:23:08;99949.00;;;1.86;73.85
48964;BME280;34776;48.180;16.420;2023-01-27T03:25:34;99943.84;;;1.79;73.60
48964;BME280;34776;48.180;16.420;2023-01-27T03:28:00;99947.38;;;1.77;73.73
48964;BME280;34776;48.180;16.420;2023-01-27T03:30:27;99940.31;;;1.80;73.94
48964;BME280;34776;48.180;16.420;2023-01-27T03:32:53;99947.31;;;1.80;73.74
48964;BME280;34776;48.180;16.420;2023-01-27T03:35:18;99944.72;;;1.78;73.82
48964;BME280;34776;48.180;16.420;2023-01-27T03:37:44;99945.56;;;1.82;73.85
48964;BME280;34776;48.180;16.420;2023-01-27T03:40:28;99941.13;;;1.87;73.74
48964;BME280;34776;48.180;16.420;2023-01-27T03:43:12;99934.91;;;1.93;73.71
48964;BME280;34776;48.180;16.420;2023-01-27T03:45:56;99940.31;;;1.83;73.38
48964;BME280;34776;48.180;16.420;2023-01-27T03:48:40;99943.88;;;1.78;73.38
48964;BME280;34776;48.180;16.420;2023-01-27T03:51:07;99939.59;;;1.71;73.25
48964;BME280;34776;48.180;16.420;2023-01-27T03:53:34;99945.72;;;1.70;73.46
48964;BME280;34776;48.180;16.420;2023-01-27T03:55:59;99937.81;;;1.74;73.68
48964;BME280;34776;48.180;16.420;2023-01-27T03:58:27;99940.44;;;1.73;73.39
48964;BME280;34776;48.180;16.420;2023-01-27T04:00:56;99941.31;;;1.73;73.46
48964;BME280;34776;48.180;16.420;2023-01-27T04:03:23;99937.69;;;1.82;73.59
48964;BME280;34776;48.180;16.420;2023-01-27T04:06:13;99935.84;;;1.89;73.73
48964;BME280;34776;48.180;16.420;2023-01-27T04:08:58;99940.22;;;1.90;73.41
48964;BME280;34776;48.180;16.420;2023-01-27T04:11:24;99937.53;;;1.93;73.72
48964;BME280;34776;48.180;16.420;2023-01-27T04:14:09;99933.13;;;1.98;73.79
48964;BME280;34776;48.180;16.420;2023-01-27T04:16:35;99929.59;;;1.97;73.54
48964;BME280;34776;48.180;16.420;2023-01-27T04:19:02;99928.81;;;1.94;73.47
48964;BME280;34776;48.180;16.420;2023-01-27T04:21:28;99933.22;;;1.90;73.41
48964;BME280;34776;48.180;16.420;2023-01-27T04:23:54;99934.13;;;1.88;73.33
48964;BME280;34776;48.180;16.420;2023-01-27T04:26:20;99928.03;;;1.86;73.47
48964;BME280;34776;48.180;16.420;2023-01-27T04:28:46;99942.03;;;1.85;73.40
48964;BME280;34776;48.180;16.420;2023-01-27T04:31:12;99943.78;;;1.84;73.60
48964;BME280;34776;48.180;16.420;2023-01-27T04:33:38;99939.47;;;1.81;73.27
48964;BME280;34776;48.180;16.420;2023-01-27T04:36:04;99937.69;;;1.83;73.46
48964;BME280;34776;48.180;16.420;2023-01-27T04:38:29;99941.16;;;1.84;73.50
48964;BME280;34776;48.180;16.420;2023-01-27T04:40:55;99942.91;;;1.85;73.72
48964;BME280;34776;48.180;16.420;2023-01-27T04:43:20;99946.38;;;1.86;73.37
48964;BME280;34776;48.180;16.420;2023-01-27T04:45:45;99948.19;;;1.80;73.36
48964;BME280;34776;48.180;16.420;2023-01-27T04:48:11;99939.44;;;1.83;73.43
48964;BME280;34776;48.180;16.420;2023-01-27T04:50:36;99941.06;;;1.90;73.66
48964;BME280;34776;48.180;16.420;2023-01-27T04:53:02;99940.16;;;1.93;73.15
48964;BME280;34776;48.180;16.420;2023-01-27T04:55:27;99937.59;;;1.90;73.26
48964;BME280;34776;48.180;16.420;2023-01-27T04:57:52;99949.00;;;1.87;72.98
48964;BME280;34776;48.180;16.420;2023-01-27T05:00:19;99943.78;;;1.82;72.96
48964;BME280;34776;48.180;16.420;2023-01-27T05:02:44;99941.22;;;1.79;72.98
48964;BME280;34776;48.180;16.420;2023-01-27T05:05:10;99948.19;;;1.80;73.17
48964;BME280;34776;48.180;16.420;2023-01-27T05:07:35;99936.84;;;1.81;73.19
48964;BME280;34776;48.180;16.420;2023-01-27T05:10:01;99936.84;;;1.78;73.14
48964;BME280;34776;48.180;16.420;2023-01-27T05:12:26;99932.53;;;1.77;72.74
48964;BME280;34776;48.180;16.420;2023-01-27T05:14:51;99936.97;;;1.72;72.86
48964;BME280;34776;48.180;16.420;2023-01-27T05:17:16;99939.59;;;1.72;72.76
48964;BME280;34776;48.180;16.420;2023-01-27T05:19:42;99937.81;;;1.74;73.02
48964;BME280;34776;48.180;16.420;2023-01-27T05:22:07;99939.53;;;1.77;72.97
48964;BME280;34776;48.180;16.420;2023-01-27T05:24:35;99942.94;;;1.83;72.93
48964;BME280;34776;48.180;16.420;2023-01-27T05:27:02;99945.53;;;1.85;72.96
48964;BME280;34776;48.180;16.420;2023-01-27T05:29:27;99947.25;;;1.85;72.98
48964;BME280;34776;48.180;16.420;2023-01-27T05:31:53;99948.16;;;1.83;72.80
48964;BME280;34776;48.180;16.420;2023-01-27T05:34:18;99944.69;;;1.81;72.90
48964;BME280;34776;48.180;16.420;2023-01-27T05:36:43;99956.03;;;1.83;72.85
48964;BME280;34776;48.180;16.420;2023-01-27T05:39:10;99944.63;;;1.86;72.71
48964;BME280;34776;48.180;16.420;2023-01-27T05:41:35;99952.47;;;1.89;72.77
48964;BME280;34776;48.180;16.420;2023-01-27T05:44:01;99946.41;;;1.84;72.75
48964;BME280;34776;48.180;16.420;2023-01-27T05:46:28;99949.06;;;1.81;72.46
48964;BME280;34776;48.180;16.420;2023-01-27T05:48:56;99949.09;;;1.78;72.57
48964;BME280;34776;48.180;16.420;2023-01-27T05:51:23;99944.69;;;1.81;72.84
48964;BME280;34776;48.180;16.420;2023-01-27T05:53:49;99945.63;;;1.76;72.33
48964;BME280;34776;48.180;16.420;2023-01-27T05:56:17;99944.75;;;1.77;72.59
48964;BME280;34776;48.180;16.420;2023-01-27T05:58:43;99952.56;;;1.80;72.72
48964;BME280;34776;48.180;16.420;2023-01-27T06:01:13;99949.97;;;1.78;72.54
48964;BME280;34776;48.180;16.420;2023-01-27T06:03:39;99955.19;;;1.78;72.85
48964;BME280;34776;48.180;16.420;2023-01-27T06:06:05;99949.94;;;1.81;72.81
48964;BME280;34776;48.180;16.420;2023-01-27T06:08:32;99953.41;;;1.83;72.74
48964;BME280;34776;48.180;16.420;2023-01-27T06:10:58;99951.72;;;1.79;72.35
48964;BME280;34776;48.180;16.420;2023-01-27T06:13:24;99953.50;;;1.76;72.49
48964;BME280;34776;48.180;16.420;2023-01-27T06:15:50;99955.25;;;1.75;72.55
48964;BME280;34776;48.180;16.420;2023-01-27T06:18:17;99951.72;;;1.76;72.50
48964;BME280;34776;48.180;16.420;2023-01-27T06:20:43;99952.63;;;1.75;72.21
48964;BME280;34776;48.180;16.420;2023-01-27T06:23:10;99951.72;;;1.76;72.32
48964;BME280;34776;48.180;16.420;2023-01-27T06:25:41;99953.63;;;1.68;72.31
48964;BME280;34776;48.180;16.420;2023-01-27T06:28:07;99958.84;;;1.68;72.35
48964;BME280;34776;48.180;16.420;2023-01-27T06:30:36;99951.84;;;1.70;72.67
48964;BME280;34776;48.180;16.420;2023-01-27T06:33:02;99958.78;;;1.73;72.33
48964;BME280;34776;48.180;16.420;2023-01-27T06:35:28;99948.38;;;1.68;72.40
48964;BME280;34776;48.180;16.420;2023-01-27T06:37:59;99948.31;;;1.71;72.48
48964;BME280;34776;48.180;16.420;2023-01-27T06:40:25;99949.97;;;1.78;72.63
48964;BME280;34776;48.180;16.420;2023-01-27T06:42:50;99951.66;;;1.82;72.33
48964;BME280;34776;48.180;16.420;2023-01-27T06:45:17;99949.88;;;1.85;72.08
48964;BME280;34776;48.180;16.420;2023-01-27T06:47:43;99956.09;;;1.79;72.06
48964;BME280;34776;48.180;16.420;2023-01-27T06:50:09;99957.81;;;1.78;72.38
48964;BME280;34776;48.180;16.420;2023-01-27T06:52:35;99955.25;;;1.77;71.95
48964;BME280;34776;48.180;16.420;2023-01-27T06:55:01;99953.53;;;1.74;72.17
48964;BME280;34776;48.180;16.420;2023-01-27T06:57:26;99956.09;;;1.79;72.41
48964;BME280;34776;48.180;16.420;2023-01-27T06:59:52;99956.94;;;1.79;72.04
48964;BME280;34776;48.180;16.420;2023-01-27T07:02:17;99960.50;;;1.75;71.82
48964;BME280;34776;48.180;16.420;2023-01-27T07:04:42;99958.72;;;1.77;71.77
48964;BME280;34776;48.180;16.420;2023-01-27T07:07:08;99957.81;;;1.78;71.90
48964;BME280;34776;48.180;16.420;2023-01-27T07:09:33;99962.13;;;1.82;71.63
48964;BME280;34776;48.180;16.420;2023-01-27T07:11:58;99964.75;;;1.82;71.50
48964;BME280;34776;48.180;16.420;2023-01-27T07:14:24;99968.28;;;1.80;71.26
48964;BME280;34776;48.180;16.420;2023-01-27T07:16:49;99965.69;;;1.78;71.35
48964;BME280;34776;48.180;16.420;2023-01-27T07:19:15;99967.44;;;1.78;71.01
48964;BME280;34776;48.180;16.420;2023-01-27T07:21:41;99970.91;;;1.78;71.13
48964;BME280;34776;48.180;16.420;2023-01-27T07:24:06;99970.13;;;1.75;70.97
48964;BME280;34776;48.180;16.420;2023-01-27T07:26:32;99967.44;;;1.78;70.77
48964;BME280;34776;48.180;16.420;2023-01-27T07:28:57;99971.75;;;1.83;70.77
48964;BME280;34776;48.180;16.420;2023-01-27T07:31:22;99978.69;;;1.85;70.49
48964;BME280;34776;48.180;16.420;2023-01-27T07:33:48;99983.06;;;1.86;70.48
48964;BME280;34776;48.180;16.420;2023-01-27T07:36:13;99992.63;;;1.88;70.26
48964;BME280;34776;48.180;16.420;2023-01-27T07:38:39;99989.16;;;1.89;70.41
48964;BME280;34776;48.180;16.420;2023-01-27T07:41:05;99987.41;;;1.88;69.96
48964;BME280;34776;48.180;16.420;2023-01-27T07:43:31;99987.31;;;1.94;70.11
48964;BME280;34776;48.180;16.420;2023-01-27T07:45:56;99986.34;;;2.01;70.11
48964;BME280;34776;48.180;16.420;2023-01-27T07:48:22;99988.94;;;2.03;69.74
48964;BME280;34776;48.180;16.420;2023-01-27T07:50:47;99989.72;;;2.11;69.90
48964;BME280;34776;48.180;16.420;2023-01-27T07:53:13;99979.22;;;2.13;69.29
48964;BME280;34776;48.180;16.420;2023-01-27T07:55:38;99985.97;;;2.28;69.45
48964;BME280;34776;48.180;16.420;2023-01-27T07:58:04;99990.97;;;2.43;69.17
48964;BME280;34776;48.180;16.420;2023-01-27T08:00:29;99993.50;;;2.49;69.24
48964;BME280;34776;48.180;16.420;2023-01-27T08:02:56;99990.88;;;2.52;68.59
48964;BME280;34776;48.180;16.420;2023-01-27T08:05:22;99992.69;;;2.47;68.56
48964;BME280;34776;48.180;16.420;2023-01-27T08:07:49;100004.81;;;2.54;68.38
48964;BME280;34776;48.180;16.420;2023-01-27T08:10:15;99996.03;;;2.55;68.54
48964;BME280;34776;48.180;16.420;2023-01-27T08:12:42;99990.81;;;2.55;68.33
48964;BME280;34776;48.180;16.420;2023-01-27T08:15:08;99994.25;;;2.57;68.51
48964;BME280;34776;48.180;16.420;2023-01-27T08:17:33;99988.34;;;2.46;68.10
48964;BME280;34776;48.180;16.420;2023-01-27T08:19:58;99995.28;;;2.47;68.42
48964;BME280;34776;48.180;16.420;2023-01-27T08:22:24;99997.03;;;2.48;68.07
48964;BME280;34776;48.180;16.420;2023-01-27T08:24:49;99998.81;;;2.46;68.21
48964;BME280;34776;48.180;16.420;2023-01-27T08:27:15;99997.81;;;2.53;68.34
48964;BME280;34776;48.180;16.420;2023-01-27T08:29:41;99999.59;;;2.51;67.68
48964;BME280;34776;48.180;16.420;2023-01-27T08:32:07;100003.06;;;2.53;68.02
48964;BME280;34776;48.180;16.420;2023-01-27T08:34:32;99999.59;;;2.51;67.71
48964;BME280;34776;48.180;16.420;2023-01-27T08:36:58;100004.81;;;2.54;68.15
48964;BME280;34776;48.180;16.420;2023-01-27T08:39:23;100005.69;;;2.55;67.83
48964;BME280;34776;48.180;16.420;2023-01-27T08:41:49;100010.91;;;2.56;67.99
48964;BME280;34776;48.180;16.420;2023-01-27T08:44:14;100012.69;;;2.54;67.86
48964;BME280;34776;48.180;16.420;2023-01-27T08:46:40;100018.72;;;2.59;67.95
48964;BME280;34776;48.180;16.420;2023-01-27T08:49:05;100011.78;;;2.55;67.63
48964;BME280;34776;48.180;16.420;2023-01-27T08:51:31;100019.81;;;2.46;67.51
48964;BME280;34776;48.180;16.420;2023-01-27T08:53:56;100020.75;;;2.42;67.30
48964;BME280;34776;48.180;16.420;2023-01-27T08:56:23;100023.28;;;2.47;67.51
48964;BME280;34776;48.180;16.420;2023-01-27T08:58:49;100018.06;;;2.45;67.47
48964;BME280;34776;48.180;16.420;2023-01-27T09:01:17;100018.13;;;2.40;67.36
48964;BME280;34776;48.180;16.420;2023-01-27T09:03:43;100019.06;;;2.38;67.22
48964;BME280;34776;48.180;16.420;2023-01-27T09:06:10;100022.47;;;2.43;67.25
48964;BME280;34776;48.180;16.420;2023-01-27T09:08:36;100022.28;;;2.55;67.73
48964;BME280;34776;48.180;16.420;2023-01-27T09:11:12;100018.56;;;2.69;67.25
48964;BME280;34776;48.180;16.420;2023-01-27T09:13:38;100021.06;;;2.78;67.00
48964;BME280;34776;48.180;16.420;2023-01-27T09:16:04;100017.69;;;2.68;66.41
48964;BME280;34776;48.180;16.420;2023-01-27T09:18:29;100020.25;;;2.73;66.41
48964;BME280;34776;48.180;16.420;2023-01-27T09:20:55;100014.97;;;2.76;66.51
48964;BME280;34776;48.180;16.420;2023-01-27T09:23:20;100025.47;;;2.76;66.30
48964;BME280;34776;48.180;16.420;2023-01-27T09:25:45;100020.34;;;2.67;66.19
48964;BME280;34776;48.180;16.420;2023-01-27T09:28:11;100017.78;;;2.63;66.37
48964;BME280;34776;48.180;16.420;2023-01-27T09:30:42;100025.50;;;2.73;66.70
48964;BME280;34776;48.180;16.420;2023-01-27T09:33:09;100037.56;;;2.84;66.51
48964;BME280;34776;48.180;16.420;2023-01-27T09:35:47;100035.00;;;2.81;66.21
48964;BME280;34776;48.180;16.420;2023-01-27T09:38:19;100027.09;;;2.83;66.42
48964;BME280;34776;48.180;16.420;2023-01-27T09:41:02;100036.53;;;2.93;66.24
48964;BME280;34776;48.180;16.420;2023-01-27T09:43:51;100032.91;;;3.02;66.34
48964;BME280;34776;48.180;16.420;2023-01-27T09:49:04;100035.47;;;3.05;66.71
48964;BME280;34776;48.180;16.420;2023-01-27T09:54:37;100037.13;;;3.11;67.52
48964;BME280;34776;48.180;16.420;2023-01-27T09:59:59;100037.91;;;3.16;68.12
48964;BME280;34776;48.180;16.420;2023-01-27T10:05:06;100027.44;;;3.13;67.76
48964;BME280;34776;48.180;16.420;2023-01-27T10:07:59;100023.94;;;3.15;67.80
48964;BME280;34776;48.180;16.420;2023-01-27T10:11:06;100011.78;;;3.10;68.08
48964;BME280;34776;48.180;16.420;2023-01-27T10:13:43;100012.66;;;3.09;67.98
48964;BME280;34776;48.180;16.420;2023-01-27T10:27:25;100016.75;;;2.74;69.44
48964;BME280;34776;48.180;16.420;2023-01-27T10:29:57;100009.75;;;2.73;69.62
48964;BME280;34776;48.180;16.420;2023-01-27T10:32:38;100016.78;;;2.71;69.37
48964;BME280;34776;48.180;16.420;2023-01-27T10:35:17;100016.00;;;2.64;69.31
48964;BME280;34776;48.180;16.420;2023-01-27T10:38:06;100021.25;;;2.66;69.69
48964;BME280;34776;48.180;16.420;2023-01-27T10:40:52;100020.22;;;2.76;69.64
48964;BME280;34776;48.180;16.420;2023-01-27T10:46:35;100015.47;;;2.98;69.44
48964;BME280;34776;48.180;16.420;2023-01-27T10:49:16;100003.25;;;2.97;68.88
48964;BME280;34776;48.180;16.420;2023-01-27T10:51:55;100006.06;;;2.86;68.40
48964;BME280;34776;48.180;16.420;2023-01-27T10:54:34;100007.09;;;2.74;68.67
48964;BME280;34776;48.180;16.420;2023-01-27T10:57:16;100006.34;;;2.68;68.88
48964;BME280;34776;48.180;16.420;2023-01-27T10:59:53;100009.00;;;2.66;69.01
48964;BME280;34776;48.180;16.420;2023-01-27T11:02:37;100008.22;;;2.59;68.98
48964;BME280;34776;48.180;16.420;2023-01-27T11:05:16;100001.47;;;2.43;69.19
48964;BME280;34776;48.180;16.420;2023-01-27T11:08:05;100003.22;;;2.44;69.11
48964;BME280;34776;48.180;16.420;2023-01-27T11:10:39;99999.75;;;2.42;69.95
48964;BME280;34776;48.180;16.420;2023-01-27T11:13:27;99997.16;;;2.39;70.47
48964;BME280;34776;48.180;16.420;2023-01-27T11:15:55;99997.22;;;2.37;70.99
48964;BME280;34776;48.180;16.420;2023-01-27T11:18:22;99999.00;;;2.34;71.37
48964;BME280;34776;48.180;16.420;2023-01-27T11:20:56;99997.34;;;2.27;71.59
48964;BME280;34776;48.180;16.420;2023-01-27T11:23:30;99993.88;;;2.24;71.55
48964;BME280;34776;48.180;16.420;2023-01-27T11:31:41;99982.44;;;2.32;71.57
48964;BME280;34776;48.180;16.420;2023-01-27T11:34:17;99992.00;;;2.33;71.68
48964;BME280;34776;48.180;16.420;2023-01-27T11:36:46;99994.69;;;2.30;71.33
48964;BME280;34776;48.180;16.420;2023-01-27T11:39:13;99996.38;;;2.34;71.41
48964;BME280;34776;48.180;16.420;2023-01-27T11:41:43;99990.28;;;2.33;71.46
48964;BME280;34776;48.180;16.420;2023-01-27T11:44:18;99997.16;;;2.39;71.48
48964;BME280;34776;48.180;16.420;2023-01-27T11:46:46;99989.22;;;2.45;71.80
48964;BME280;34776;48.180;16.420;2023-01-27T11:49:34;99988.28;;;2.48;71.70
48964;BME280;34776;48.180;16.420;2023-01-27T11:52:08;99989.13;;;2.51;71.67
48964;BME280;34776;48.180;16.420;2023-01-27T11:54:49;99986.69;;;2.39;71.92
48964;BME280;34776;48.180;16.420;2023-01-27T11:57:21;99989.28;;;2.40;72.34
48964;BME280;34776;48.180;16.420;2023-01-27T11:59:51;99984.97;;;2.38;72.79
48964;BME280;34776;48.180;16.420;2023-01-27T12:02:50;99987.75;;;2.27;73.10
48964;BME280;34776;48.180;16.420;2023-01-27T12:05:45;99984.13;;;2.34;73.55
48964;BME280;34776;48.180;16.420;2023-01-27T12:08:39;99974.47;;;2.39;73.65
48964;BME280;34776;48.180;16.420;2023-01-27T12:14:11;99981.16;;;2.57;73.59
48964;BME280;34776;48.180;16.420;2023-01-27T12:16:43;99972.34;;;2.60;73.53
48964;BME280;34776;48.180;16.420;2023-01-27T12:19:39;99972.28;;;2.64;72.81
48964;BME280;34776;48.180;16.420;2023-01-27T12:22:19;99978.38;;;2.67;72.30
48964;BME280;34776;48.180;16.420;2023-01-27T12:24:49;99971.31;;;2.72;72.29
48964;BME280;34776;48.180;16.420;2023-01-27T12:27:24;99967.75;;;2.76;71.81
48964;BME280;34776;48.180;16.420;2023-01-27T12:29:54;99972.06;;;2.78;71.53
48964;BME280;34776;48.180;16.420;2023-01-27T12:32:23;99958.72;;;2.92;71.24
48964;BME280;34776;48.180;16.420;2023-01-27T12:34:53;99964.59;;;3.05;70.53
48964;BME280;34776;48.180;16.420;2023-01-27T12:37:29;99955.69;;;3.14;69.76
48964;BME280;34776;48.180;16.420;2023-01-27T12:40:06;99957.34;;;3.19;69.35
48964;BME280;34776;48.180;16.420;2023-01-27T12:45:20;99951.06;;;3.27;68.97
48964;BME280;34776;48.180;16.420;2023-01-27T12:50:40;99950.94;;;3.34;68.03
48964;BME280;34776;48.180;16.420;2023-01-27T12:53:16;99949.25;;;3.30;67.60
48964;BME280;34776;48.180;16.420;2023-01-27T12:55:48;99946.56;;;3.32;67.58
48964;BME280;34776;48.180;16.420;2023-01-27T12:58:34;99939.41;;;3.40;67.14
48964;BME280;34776;48.180;16.420;2023-01-27T13:01:06;99942.84;;;3.43;65.08
48964;BME280;34776;48.180;16.420;2023-01-27T13:03:42;99942.03;;;3.40;66.79
48964;BME280;34776;48.180;16.420;2023-01-27T13:06:08;99944.03;;;3.27;66.62
48964;BME280;34776;48.180;16.420;2023-01-27T13:08:39;99931.22;;;3.12;66.71
48964;BME280;34776;48.180;16.420;2023-01-27T13:11:05;99944.34;;;3.12;66.88
48964;BME280;34776;48.180;16.420;2023-01-27T13:13:32;99939.94;;;3.12;66.68
48964;BME280;34776;48.180;16.420;2023-01-27T13:16:36;99945.31;;;3.06;66.09
48964;BME280;34776;48.180;16.420;2023-01-27T13:19:14;99953.28;;;3.01;66.35
48964;BME280;34776;48.180;16.420;2023-01-27T13:21:40;99954.25;;;2.96;66.23
48964;BME280;34776;48.180;16.420;2023-01-27T13:24:13;99942.19;;;2.85;66.06
48964;BME280;34776;48.180;16.420;2023-01-27T13:26:43;99952.69;;;2.85;66.76
48964;BME280;34776;48.180;16.420;2023-01-27T13:29:14;99943.16;;;2.81;66.72
48964;BME280;34776;48.180;16.420;2023-01-27T13:35:33;99945.09;;;2.69;65.96
48964;BME280;34776;48.180;16.420;2023-01-27T13:38:18;99951.16;;;2.72;66.18
48964;BME280;34776;48.180;16.420;2023-01-27T13:40:46;99950.25;;;2.75;66.48
48964;BME280;34776;48.180;16.420;2023-01-27T13:43:36;99943.41;;;2.64;65.87
48964;BME280;34776;48.180;16.420;2023-01-27T13:46:16;99944.44;;;2.57;66.18
48964;BME280;34776;48.180;16.420;2023-01-27T13:48:49;99947.16;;;2.50;66.02
48964;BME280;34776;48.180;16.420;2023-01-27T13:51:19;99950.69;;;2.50;65.91
48964;BME280;34776;48.180;16.420;2023-01-27T13:53:47;99949.84;;;2.48;66.19
48964;BME280;34776;48.180;16.420;2023-01-27T13:58:48;99956.06;;;2.41;66.16
48964;BME280;34776;48.180;16.420;2023-01-27T14:01:41;99953.41;;;2.42;65.97